Time;durP1;ratioP1;P1;durP2;ratioP2;P2;SDS_P1;SDS_P2;PMS_P1;PMS_P2;Temp;Humidity;BMP_temperature;BMP_pressure;BME280_temperature;BME280_humidity;BME280_pressure;Samples;Min_cycle;Max_cycle;Signal;HPM_P1;HPM_P2
2022/01/30 00:00:31;;;;;;;6.50;3.40;;;3.20;99.90;;;1.54;91.77;100088.66;10418173;27;96616;-77
2022/01/30 00:05:34;;;;;;;9.97;4.30;;;3.30;99.90;;;1.62;92.45;100073.22;10428971;27;96538;-77
2022/01/30 00:10:39;;;;;;;8.00;3.80;;;3.40;99.90;;;1.70;92.51;100049.06;10419598;27;96389;-77
2022/01/30 00:15:47;;;;;;;7.83;3.57;;;3.50;99.90;;;1.72;92.58;100036.69;10394487;27;96884;-78
2022/01/30 00:21:08;;;;;;;9.70;4.60;;;3.50;99.90;;;1.73;92.28;100020.84;10389052;27;97022;-76
2022/01/30 00:26:14;;;;;;;9.27;3.60;;;3.50;99.90;;;1.73;92.46;100017.38;10396676;27;96578;-77
2022/01/30 00:31:20;;;;;;;9.10;4.90;;;3.60;99.90;;;1.70;92.27;99997.50;10417284;27;96502;-76
2022/01/30 00:36:31;;;;;;;10.27;4.77;;;3.60;99.90;;;1.68;92.56;99975.84;10424024;27;96522;-77
2022/01/30 00:41:33;;;;;;;14.57;6.73;;;3.60;99.90;;;1.64;92.64;99979.63;10425818;27;96512;-77
2022/01/30 00:46:38;;;;;;;10.60;5.90;;;3.50;99.90;;;1.59;92.64;99976.53;10390937;27;96445;-77
2022/01/30 00:51:40;;;;;;;15.37;6.67;;;3.50;99.90;;;1.57;92.64;99987.13;10419645;27;97714;-77
2022/01/30 00:56:43;;;;;;;14.10;5.63;;;3.50;99.90;;;1.57;92.98;99962.72;10416092;28;96533;-77
2022/01/30 01:01:46;;;;;;;16.30;8.10;;;3.50;99.90;;;1.57;92.94;99941.78;10426832;27;96474;-77
2022/01/30 01:06:50;;;;;;;18.93;8.97;;;3.50;99.90;;;1.55;92.99;99947.09;10422510;27;96533;-77
2022/01/30 01:28:13;;;;;;;12.32;4.78;;;3.40;99.90;;;1.48;93.24;99911.03;10400332;27;96580;-78
2022/01/30 01:33:17;;;;;;;11.47;5.07;;;3.40;99.90;;;1.50;93.75;99906.50;10394259;27;96567;-78
2022/01/30 01:38:21;;;;;;;12.27;5.23;;;3.40;99.90;;;1.62;93.68;99895.09;10413279;27;96621;-78
2022/01/30 01:43:25;;;;;;;8.33;4.57;;;3.40;99.90;;;1.71;93.82;99880.47;10373849;28;96694;-78
2022/01/30 01:48:34;;;;;;;9.73;4.03;;;3.50;99.90;;;1.86;92.44;99866.19;10423112;27;96548;-78
2022/01/30 01:53:37;;;;;;;20.33;8.23;;;3.60;99.90;;;1.90;92.13;99853.66;10440683;27;97013;-77
2022/01/30 01:58:40;;;;;;;11.07;4.73;;;3.70;99.90;;;1.89;91.74;99855.44;10425291;27;97325;-77
2022/01/30 02:03:44;;;;;;;8.87;5.33;;;3.70;99.90;;;2.07;90.52;99838.25;10434965;27;98095;-77
2022/01/30 02:08:58;;;;;;;9.83;4.33;;;3.80;99.90;;;2.07;89.81;99811.22;10436678;27;96516;-77
2022/01/30 02:29:33;;;;;;;10.07;4.43;;;4.00;99.90;;;2.30;87.98;99783.13;10420239;27;96586;-76
2022/01/30 02:34:36;;;;;;;8.80;4.30;;;4.10;99.90;;;2.32;87.59;99750.59;10434450;27;96579;-76
2022/01/30 02:39:39;;;;;;;8.77;3.73;;;4.10;99.90;;;2.36;87.47;99759.88;10419836;27;96569;-76
2022/01/30 02:44:50;;;;;;;12.53;4.57;;;4.20;99.90;;;2.33;87.20;99749.63;10398529;27;96621;-76
2022/01/30 02:55:14;;;;;;;5.30;2.70;;;4.20;99.90;;;2.68;87.42;99735.38;10427420;27;96716;-76
2022/01/30 03:00:17;;;;;;;4.80;2.40;;;4.40;99.90;;;2.77;87.41;99718.88;10420142;27;96503;-75
2022/01/30 03:05:22;;;;;;;5.20;2.60;;;4.50;99.90;;;2.80;87.09;99715.97;10389756;27;96552;-76
2022/01/30 03:10:25;;;;;;;6.43;2.63;;;4.60;99.90;;;2.73;87.08;99706.13;10379137;28;96440;-76
2022/01/30 03:15:27;;;;;;;4.30;2.20;;;4.60;99.90;;;2.69;86.95;99708.16;10386484;27;97438;-78
2022/01/30 03:20:30;;;;;;;4.10;2.03;;;4.50;99.90;;;2.80;87.74;99697.59;10426578;27;97616;-76
2022/01/30 03:25:34;;;;;;;3.10;1.53;;;4.60;99.90;;;3.08;88.36;99711.00;10449457;27;96436;-78
2022/01/30 03:30:38;;;;;;;1.60;1.00;;;4.70;99.90;;;3.68;87.85;99686.44;10403989;27;96624;-77
2022/01/30 03:35:40;;;;;;;1.63;1.00;;;5.20;99.90;;;4.37;84.88;99666.19;10403490;27;97219;-76
2022/01/30 03:40:43;;;;;;;1.00;0.60;;;5.80;99.90;;;4.78;83.21;99662.38;10401096;28;96455;-78
2022/01/30 03:45:48;;;;;;;1.43;0.80;;;6.20;99.90;;;5.18;83.21;99622.56;10401840;27;96657;-77
2022/01/30 03:50:50;;;;;;;1.70;0.80;;;6.70;99.90;;;5.29;82.13;99616.25;10390530;27;98099;-78
2022/01/30 03:55:53;;;;;;;1.43;0.80;;;6.80;99.90;;;5.32;81.95;99592.25;10458191;27;96548;-78
2022/01/30 04:00:56;;;;;;;3.20;1.07;;;6.90;99.90;;;5.31;81.27;99582.69;10407040;27;96524;-79
2022/01/30 04:05:59;;;;;;;2.23;1.30;;;6.90;99.90;;;5.29;80.34;99576.75;10401342;27;96783;-77
2022/01/30 04:11:03;;;;;;;3.87;1.43;;;6.90;99.90;;;5.27;80.19;99586.59;10400654;28;96771;-76
2022/01/30 04:16:07;;;;;;;1.73;0.90;;;6.80;99.90;;;5.42;79.31;99593.00;10391701;27;98451;-75
2022/01/30 04:21:10;;;;;;;2.50;0.90;;;6.90;99.90;;;5.67;78.45;99575.63;10416974;27;96481;-78
2022/01/30 04:26:13;;;;;;;1.60;0.83;;;7.20;99.90;;;5.86;76.27;99571.97;10422471;27;96557;-78
2022/01/30 04:31:16;;;;;;;1.40;0.80;;;7.30;99.90;;;6.02;74.84;99573.94;10406710;28;96541;-79
2022/01/30 04:36:26;;;;;;;2.40;1.10;;;7.50;99.90;;;6.03;74.43;99580.88;10369795;27;97102;-79
2022/01/30 04:41:59;;;;;;;1.00;0.80;;;7.60;99.90;;;6.04;74.36;99593.06;10380167;27;97281;-77
2022/01/30 04:52:29;;;;;;;2.20;1.00;;;7.60;99.90;;;6.14;75.29;99599.09;10436591;27;96512;-77
2022/01/30 05:08:06;;;;;;;1.80;0.93;;;7.30;99.90;;;5.43;83.53;99578.03;10406600;27;96666;-79
2022/01/30 05:13:14;;;;;;;3.30;1.43;;;7.00;99.90;;;5.26;83.69;99575.22;10416590;27;97055;-81
2022/01/30 05:18:24;;;;;;;2.23;1.43;;;6.80;99.90;;;5.16;85.20;99595.53;10416124;27;96551;-80
2022/01/30 05:23:27;;;;;;;3.40;1.93;;;6.70;99.90;;;5.07;86.71;99623.56;10430125;27;96694;-77
2022/01/30 05:28:30;;;;;;;3.87;1.37;;;6.60;99.90;;;4.97;87.72;99614.06;10430630;27;96687;-79
2022/01/30 05:33:34;;;;;;;5.50;3.47;;;6.50;99.90;;;4.85;88.96;99631.84;10430834;27;96514;-77
2022/01/30 05:38:37;;;;;;;2.57;1.90;;;6.40;99.90;;;4.75;89.31;99633.72;10437754;27;96482;-77
2022/01/30 05:43:41;;;;;;;3.70;1.80;;;6.30;99.90;;;4.71;89.82;99629.69;10451260;27;96590;-77
2022/01/30 05:48:44;;;;;;;3.90;2.10;;;6.30;99.90;;;4.66;90.36;99638.03;10378983;28;98313;-77
2022/01/30 05:53:47;;;;;;;3.50;1.63;;;6.20;99.90;;;4.61;90.58;99644.69;10386704;28;96505;-77
2022/01/30 05:58:50;;;;;;;2.67;1.60;;;6.20;99.90;;;4.57;90.91;99652.88;10411741;27;96668;-77
2022/01/30 06:03:53;;;;;;;2.40;1.30;;;6.20;99.90;;;4.60;91.67;99643.03;10423799;27;96925;-79
2022/01/30 06:14:19;;;;;;;1.35;1.00;;;6.10;99.90;;;4.43;91.60;99663.84;10397247;27;96602;-77
2022/01/30 06:19:22;;;;;;;1.30;1.00;;;6.10;99.90;;;4.45;92.20;99709.28;10416532;27;96409;-76
2022/01/30 06:24:25;;;;;;;0.87;0.53;;;6.00;99.90;;;4.46;91.82;99668.84;10426936;27;98308;-78
2022/01/30 06:29:28;;;;;;;1.23;0.80;;;6.10;99.90;;;4.43;90.19;99648.03;10396893;27;96513;-76
2022/01/30 06:34:31;;;;;;;0.77;0.47;;;6.00;99.90;;;4.33;89.58;99652.53;10426205;27;97596;-76
2022/01/30 06:39:35;;;;;;;1.20;0.50;;;5.90;99.90;;;4.21;89.84;99651.03;10371685;28;96599;-76
2022/01/30 06:44:38;;;;;;;7.53;1.70;;;5.80;99.90;;;4.24;90.17;99653.34;10359753;28;96521;-75
2022/01/30 06:49:41;;;;;;;3.07;0.93;;;5.80;99.90;;;4.29;90.05;99656.41;10372953;28;98175;-77
2022/01/30 06:54:44;;;;;;;2.23;1.07;;;5.90;99.90;;;4.38;90.10;99681.88;10360812;28;96524;-77
2022/01/30 06:59:47;;;;;;;1.83;0.90;;;5.90;99.90;;;4.53;89.47;99698.03;10338337;28;96657;-77
2022/01/30 07:04:49;;;;;;;1.93;0.90;;;6.00;99.90;;;4.59;88.83;99676.41;10371993;28;96698;-78
2022/01/30 07:09:52;;;;;;;1.87;0.87;;;6.10;99.90;;;4.70;87.98;99667.53;10355123;28;96483;-76
2022/01/30 07:14:55;;;;;;;0.83;0.60;;;6.20;99.90;;;4.96;86.51;99657.16;10379563;28;96598;-78
2022/01/30 07:19:58;;;;;;;1.70;0.67;;;6.30;99.90;;;5.56;83.84;99655.72;10381411;28;96503;-76
2022/01/30 07:25:02;;;;;;;3.30;1.10;;;6.50;99.90;;;6.03;79.35;99642.38;10391299;28;96868;-75
2022/01/30 07:30:06;;;;;;;5.47;2.27;;;6.70;99.90;;;6.34;75.81;99665.69;10345323;28;96510;-77
2022/01/30 07:35:09;;;;;;;2.33;0.50;;;6.90;99.90;;;6.57;70.04;99648.38;10368373;28;96490;-76
2022/01/30 07:40:13;;;;;;;2.20;0.40;;;7.20;99.90;;;6.83;68.48;99695.06;10405930;28;96643;-76
2022/01/30 07:45:16;;;;;;;1.47;0.67;;;7.40;99.90;;;6.97;66.68;99666.25;10425847;27;97739;-75
2022/01/30 07:50:19;;;;;;;2.60;0.80;;;7.60;99.90;;;7.03;67.25;99682.47;10423228;27;96543;-79
2022/01/30 07:55:22;;;;;;;1.70;0.80;;;7.80;99.90;;;7.11;65.42;99698.34;10410549;27;96615;-77
2022/01/30 08:00:25;;;;;;;3.13;0.83;;;7.80;99.90;;;7.18;64.16;99704.66;10446568;27;96519;-75
2022/01/30 08:05:28;;;;;;;4.50;0.63;;;7.90;99.90;;;7.17;63.38;99732.06;10418348;27;96575;-79
2022/01/30 08:10:31;;;;;;;1.73;0.30;;;8.10;99.90;;;7.17;63.13;99740.84;10408282;27;96596;-76
2022/01/30 08:15:34;;;;;;;2.40;0.93;;;8.10;98.80;;;7.25;60.98;99721.53;10398358;27;96631;-75
2022/01/30 08:20:37;;;;;;;4.47;0.93;;;8.30;95.80;;;7.40;59.43;99708.56;10435313;27;96490;-77
2022/01/30 08:25:42;;;;;;;1.10;0.70;;;8.40;94.70;;;7.57;57.93;99712.94;10378220;28;96551;-77
2022/01/30 08:30:45;;;;;;;4.30;0.60;;;8.50;93.00;;;7.69;57.08;99714.28;10376430;28;96465;-77
2022/01/30 08:35:50;;;;;;;6.60;0.77;;;8.60;91.70;;;7.91;56.09;99720.78;10394186;27;96625;-77
2022/01/30 08:40:53;;;;;;;3.53;0.83;;;8.90;91.00;;;8.08;56.02;99720.81;10375844;28;96554;-77
2022/01/30 08:45:58;;;;;;;3.50;0.63;;;9.00;90.00;;;8.24;55.08;99737.53;10373725;28;96540;-76
2022/01/30 08:51:01;;;;;;;2.70;1.00;;;9.20;90.00;;;8.23;54.66;99758.88;10391083;28;96575;-76
2022/01/30 08:56:04;;;;;;;3.13;0.90;;;9.20;87.00;;;8.21;55.69;99734.38;10399426;28;96838;-76
2022/01/30 09:01:08;;;;;;;3.33;0.80;;;9.30;87.30;;;8.25;55.26;99751.59;10365967;27;96645;-75
2022/01/30 09:06:12;;;;;;;4.03;1.60;;;9.30;86.40;;;8.47;55.01;99766.88;10391225;27;98289;-78
2022/01/30 09:11:15;;;;;;;3.97;1.70;;;9.40;86.30;;;8.74;52.66;99783.44;10398782;28;96511;-78
2022/01/30 09:16:18;;;;;;;1.93;0.50;;;9.70;83.20;;;8.87;51.55;99735.22;10403999;28;96514;-76
2022/01/30 09:21:21;;;;;;;3.67;0.90;;;9.90;79.10;;;8.95;51.94;99711.38;10364546;28;97722;-75
2022/01/30 09:26:24;;;;;;;3.67;0.80;;;10.00;78.60;;;8.92;50.44;99715.19;10387900;28;96795;-75
2022/01/30 09:31:27;;;;;;;3.73;0.70;;;10.00;76.30;;;9.02;50.07;99713.19;10377289;28;96639;-76
2022/01/30 09:36:30;;;;;;;3.60;0.60;;;10.10;76.00;;;9.22;50.07;99728.69;10363184;28;96554;-76
2022/01/30 09:41:34;;;;;;;1.50;0.53;;;10.20;74.70;;;9.23;48.58;99736.47;10377416;28;96640;-76
2022/01/30 09:46:42;;;;;;;0.87;0.30;;;10.30;71.30;;;9.26;49.09;99704.31;10370004;28;96782;-78
2022/01/30 09:51:45;;;;;;;2.27;0.47;;;10.30;71.60;;;9.13;48.29;99709.34;10375727;28;96536;-75
2022/01/30 09:56:49;;;;;;;2.67;0.97;;;10.30;69.90;;;9.25;48.89;99721.22;10401198;27;96832;-78
2022/01/30 10:01:52;;;;;;;2.97;0.60;;;10.30;71.70;;;9.23;48.21;99740.94;10385004;27;96880;-76
2022/01/30 10:07:02;;;;;;;3.77;1.00;;;10.40;69.40;;;8.84;48.38;99741.69;10404753;27;97129;-78
2022/01/30 10:12:19;;;;;;;4.53;1.00;;;10.10;68.50;;;8.37;50.96;99768.03;10430140;27;98073;-78
2022/01/30 10:17:46;;;;;;;1.10;0.50;;;9.80;71.10;;;7.78;51.69;99776.78;10398251;27;98419;-75
2022/01/30 10:23:11;;;;;;;3.17;0.70;;;9.40;71.30;;;7.37;52.55;99759.91;10402910;28;96709;-76
2022/01/30 10:28:30;;;;;;;4.57;0.60;;;9.00;72.20;;;7.50;50.74;99770.91;10401492;27;96607;-78
2022/01/30 10:33:45;;;;;;;5.50;0.70;;;9.00;71.40;;;7.73;49.68;99746.50;10387557;27;96577;-75
2022/01/30 10:39:22;;;;;;;6.03;1.93;;;9.10;70.10;;;7.99;49.13;99757.03;10415799;27;96804;-78
2022/01/30 10:44:26;;;;;;;4.17;1.37;;;9.20;68.70;;;8.29;48.81;99723.81;10420951;27;96791;-78
2022/01/30 10:49:29;;;;;;;7.27;1.73;;;9.40;69.20;;;8.57;48.92;99772.00;10414264;28;98330;-76
2022/01/30 10:54:34;;;;;;;2.73;0.67;;;9.70;69.30;;;8.92;47.16;99785.91;10394667;28;97012;-77
2022/01/30 10:59:43;;;;;;;1.77;0.43;;;10.10;67.10;;;8.48;45.95;99767.72;10396036;27;98155;-79
2022/01/30 11:04:48;;;;;;;5.07;1.00;;;9.80;63.70;;;8.04;47.52;99744.97;10409415;27;96921;-79
2022/01/30 11:10:05;;;;;;;6.37;2.03;;;9.50;65.80;;;7.73;49.70;99728.81;10429844;27;96642;-78
2022/01/30 11:15:34;;;;;;;2.90;0.90;;;9.30;67.60;;;7.37;49.58;99714.16;10368165;27;98148;-77
2022/01/30 11:20:37;;;;;;;2.63;0.70;;;8.90;67.10;;;7.17;51.09;99724.16;10426382;27;96442;-77
2022/01/30 11:25:44;;;;;;;2.20;0.80;;;8.70;69.20;;;6.89;52.27;99711.09;10394321;27;98538;-78
2022/01/30 11:30:50;;;;;;;1.63;0.43;;;8.50;70.70;;;6.84;52.18;99713.41;10407134;27;98504;-77
2022/01/30 11:35:54;;;;;;;1.53;0.47;;;8.40;70.70;;;6.71;51.73;99719.06;10388538;28;96406;-77
2022/01/30 11:41:18;;;;;;;4.13;0.80;;;8.30;69.80;;;6.59;52.31;99707.09;10384356;27;98290;-77
2022/01/30 11:46:21;;;;;;;1.33;0.60;;;8.10;71.10;;;6.75;52.79;99716.13;10422814;27;96831;-77
2022/01/30 11:51:24;;;;;;;4.43;0.70;;;8.20;71.90;;;6.87;52.58;99685.84;10399178;27;98670;-78
2022/01/30 11:56:33;;;;;;;4.00;1.83;;;8.40;71.60;;;6.89;52.55;99711.09;10396860;27;97029;-77
2022/01/30 12:01:37;;;;;;;4.50;0.90;;;8.40;71.60;;;6.70;54.52;99722.69;10435975;27;96487;-77
2022/01/30 12:06:44;;;;;;;2.33;1.00;;;8.30;73.30;;;6.37;56.17;99707.63;10387697;27;98282;-77
2022/01/30 12:11:47;;;;;;;5.97;0.70;;;8.00;75.60;;;6.21;55.77;99700.38;10422308;27;96583;-78
2022/01/30 12:17:03;;;;;;;1.83;0.60;;;7.80;75.70;;;6.28;54.36;99716.44;10438341;27;96565;-77
2022/01/30 12:22:18;;;;;;;1.47;0.60;;;7.80;73.90;;;6.28;52.22;99712.00;10432775;27;96933;-77
2022/01/30 12:27:21;;;;;;;2.07;0.70;;;7.80;71.30;;;6.22;52.56;99702.03;10416718;27;97058;-77
2022/01/30 12:32:24;;;;;;;5.47;0.83;;;7.80;71.50;;;5.95;56.84;99702.97;10403259;27;97230;-77
2022/01/30 12:37:37;;;;;;;3.43;0.77;;;7.60;76.60;;;5.70;56.81;99707.13;10377722;28;96474;-77
2022/01/30 12:42:41;;;;;;;3.60;0.50;;;7.30;76.80;;;5.73;55.72;99690.19;10374120;27;96554;-77
2022/01/30 12:47:57;;;;;;;2.67;0.53;;;7.30;75.40;;;5.86;54.85;99690.63;10403815;27;96730;-77
2022/01/30 12:53:02;;;;;;;3.07;0.40;;;7.40;74.60;;;5.78;55.88;99667.66;10409205;27;96606;-77
2022/01/30 12:58:06;;;;;;;2.97;0.80;;;7.30;75.80;;;5.92;53.04;99658.41;10379150;27;96536;-77
2022/01/30 13:03:18;;;;;;;6.17;1.87;;;7.40;72.50;;;6.13;53.56;99698.53;10397059;27;96477;-77
2022/01/30 13:08:21;;;;;;;2.87;1.13;;;7.60;73.10;;;6.06;54.33;99726.50;10417727;27;96528;-77
2022/01/30 13:13:24;;;;;;;10.03;1.00;;;7.60;73.70;;;5.62;61.07;99739.50;10397204;28;96551;-76
2022/01/30 13:18:27;;;;;;;4.83;0.90;;;7.40;80.80;;;5.10;64.72;99731.28;10369010;27;96512;-77
2022/01/30 13:23:29;;;;;;;4.13;0.70;;;6.80;90.00;;;5.04;61.96;99767.91;10393556;27;96616;-77
2022/01/30 13:28:33;;;;;;;4.97;1.10;;;6.70;87.10;;;4.92;63.95;99784.81;10392225;27;96494;-77
2022/01/30 13:33:35;;;;;;;4.40;1.30;;;6.60;90.30;;;4.87;63.61;99798.41;10368491;28;96519;-77
2022/01/30 13:38:41;;;;;;;4.67;1.23;;;6.50;90.70;;;4.80;63.27;99763.94;10395673;27;96439;-77
2022/01/30 13:43:57;;;;;;;6.87;1.70;;;6.40;90.40;;;4.78;62.85;99770.28;10429128;27;96702;-76
2022/01/30 13:49:05;;;;;;;3.93;0.97;;;6.40;90.30;;;4.89;59.09;99754.34;10383547;27;96594;-75
2022/01/30 13:54:12;;;;;;;7.73;1.70;;;6.40;84.50;;;5.04;58.42;99767.91;10424420;27;96512;-77
2022/01/30 13:59:28;;;;;;;4.80;1.30;;;6.60;83.70;;;5.15;58.93;99759.81;10379740;28;96780;-77
2022/01/30 14:04:34;;;;;;;6.30;1.70;;;6.70;83.80;;;5.22;58.37;99770.63;10397965;27;96431;-77
2022/01/30 14:09:43;;;;;;;5.77;1.40;;;6.80;83.20;;;5.31;57.66;99760.03;10398231;27;96647;-76
2022/01/30 14:15:07;;;;;;;2.40;0.80;;;6.90;82.00;;;5.32;57.08;99781.94;10393437;28;96593;-75
2022/01/30 14:20:12;;;;;;;3.87;0.93;;;6.90;81.00;;;5.37;56.16;99787.59;10383355;28;96606;-75
2022/01/30 14:25:18;;;;;;;1.90;0.70;;;6.90;79.50;;;5.44;55.24;99767.59;10424584;27;96510;-75
2022/01/30 14:30:38;;;;;;;3.20;1.50;;;7.00;77.40;;;5.54;54.29;99807.09;10392208;27;96725;-76
2022/01/30 14:35:42;;;;;;;7.33;1.43;;;7.10;76.20;;;5.48;55.12;99821.69;10394935;28;96610;-77
2022/01/30 14:40:45;;;;;;;7.17;2.13;;;7.00;77.00;;;5.45;54.43;99810.59;10425033;27;96541;-77
2022/01/30 14:45:49;;;;;;;5.03;0.90;;;7.00;76.10;;;5.43;53.88;99809.91;10413238;27;96938;-76
2022/01/30 14:50:52;;;;;;;4.87;1.30;;;7.00;74.80;;;5.46;53.73;99825.41;10415746;27;96592;-75
2022/01/30 14:55:55;;;;;;;3.33;0.90;;;7.00;74.80;;;5.49;52.71;99817.25;10425077;27;96570;-76
2022/01/30 15:00:59;;;;;;;3.87;0.90;;;7.10;73.90;;;5.52;52.51;99828.34;10408439;27;96640;-76
2022/01/30 15:06:03;;;;;;;4.30;1.10;;;7.10;72.10;;;5.51;51.94;99813.47;10437959;27;96451;-75
2022/01/30 15:11:06;;;;;;;3.60;0.90;;;7.10;71.70;;;5.57;50.47;99812.06;10434036;27;96498;-76
2022/01/30 15:16:18;;;;;;;4.07;0.83;;;7.10;70.70;;;5.60;51.42;99812.63;10412193;28;96465;-75
2022/01/30 15:21:21;;;;;;;10.20;1.60;;;7.20;70.70;;;5.58;51.58;99805.84;10440431;27;96516;-76
2022/01/30 15:26:25;;;;;;;55.57;18.67;;;7.20;70.70;;;5.55;50.82;99793.78;10439818;27;96580;-75
2022/01/30 15:31:28;;;;;;;6.37;3.47;;;7.10;69.60;;;5.54;51.24;99821.09;10399723;27;96944;-76
2022/01/30 15:36:31;;;;;;;5.10;1.10;;;7.10;69.60;;;5.54;51.20;99818.47;10419106;28;97784;-76
2022/01/30 15:41:34;;;;;;;3.20;1.33;;;7.10;69.90;;;5.52;51.29;99822.25;10392980;27;96598;-75
2022/01/30 15:51:59;;;;;;;4.43;1.17;;;7.10;69.50;;;5.50;50.38;99835.53;10461358;27;96669;-77
2022/01/30 15:57:02;;;;;;;6.83;1.70;;;7.10;68.20;;;5.49;50.08;99789.09;10438800;27;96476;-78
2022/01/30 16:02:05;;;;;;;6.60;1.43;;;7.10;68.20;;;5.47;49.71;99790.22;10404136;27;96713;-75
2022/01/30 16:07:08;;;;;;;7.63;1.83;;;7.00;67.60;;;5.39;50.16;99809.34;10399704;28;96596;-77
2022/01/30 16:17:13;;;;;;;5.80;1.70;;;7.00;67.90;;;5.29;50.67;99816.50;10419144;27;96526;-78
2022/01/30 16:22:16;;;;;;;4.73;2.03;;;6.90;68.20;;;5.21;50.82;99821.63;10439036;27;96495;-77
2022/01/30 16:27:23;;;;;;;4.87;1.40;;;6.80;68.40;;;5.16;51.23;99842.28;10445900;27;96595;-78
2022/01/30 16:32:26;;;;;;;5.40;1.50;;;6.80;69.00;;;5.13;51.60;99827.59;10410852;27;97367;-77
2022/01/30 16:37:29;;;;;;;8.40;1.57;;;6.80;69.20;;;5.08;51.43;99825.38;10396385;27;98504;-77
2022/01/30 16:42:34;;;;;;;9.97;2.70;;;6.70;69.10;;;5.10;51.41;99830.53;10426590;27;96768;-78
2022/01/30 16:47:39;;;;;;;4.87;1.70;;;6.70;68.90;;;5.14;51.20;99850.34;10443087;27;96495;-77
2022/01/30 16:52:43;;;;;;;4.97;2.10;;;6.70;68.90;;;5.13;51.28;99829.41;10458751;27;97004;-77
2022/01/30 16:57:46;;;;;;;9.00;1.83;;;6.70;68.90;;;5.16;50.63;99823.84;10441740;27;97017;-78
2022/01/30 17:02:52;;;;;;;4.83;1.03;;;6.70;68.20;;;5.19;50.59;99842.00;10413694;27;98296;-78
2022/01/30 17:07:55;;;;;;;7.60;1.47;;;6.80;67.80;;;5.18;50.98;99864.91;10432433;27;96672;-77
2022/01/30 17:13:00;;;;;;;8.40;1.97;;;6.80;68.30;;;5.18;50.33;99851.72;10418874;27;96525;-76
2022/01/30 17:18:07;;;;;;;7.43;1.90;;;6.80;67.80;;;5.20;50.15;99875.28;10422927;27;96502;-77
2022/01/30 17:23:10;;;;;;;4.93;1.30;;;6.80;67.60;;;5.19;49.95;99873.63;10442381;27;96495;-77
2022/01/30 17:28:14;;;;;;;5.40;1.67;;;6.80;67.30;;;5.13;49.66;99893.47;10412090;27;97130;-78
2022/01/30 17:33:23;;;;;;;9.17;1.30;;;6.70;66.70;;;5.11;49.53;99869.06;10417472;27;96533;-77
2022/01/30 17:38:26;;;;;;;6.20;1.87;;;6.70;66.50;;;5.06;49.77;99887.91;10422050;27;97648;-77
2022/01/30 17:43:29;;;;;;;9.77;2.60;;;6.70;66.80;;;5.02;49.46;99899.69;10429513;27;96626;-77
2022/01/30 17:48:31;;;;;;;9.20;2.10;;;6.60;66.50;;;4.99;49.95;99894.72;10414172;27;96548;-77
2022/01/30 17:53:34;;;;;;;10.50;1.53;;;6.60;66.60;;;4.93;49.85;99890.00;10401320;27;96964;-77
2022/01/30 17:58:37;;;;;;;9.37;1.87;;;6.60;66.60;;;4.88;50.08;99889.59;10424271;27;98086;-77
2022/01/30 18:03:41;;;;;;;8.93;1.80;;;6.50;66.70;;;4.81;50.00;99884.06;10403385;27;98136;-76
2022/01/30 18:08:48;;;;;;;7.43;1.90;;;6.40;66.60;;;4.77;50.21;99887.09;10417034;27;96501;-77
2022/01/30 18:13:50;;;;;;;6.60;2.07;;;6.40;66.80;;;4.70;50.43;99860.50;10428509;27;98336;-76
2022/01/30 18:18:53;;;;;;;7.73;2.10;;;6.30;66.70;;;4.69;49.92;99863.28;10427251;27;96552;-76
2022/01/30 18:23:56;;;;;;;8.00;1.80;;;6.30;66.50;;;4.66;49.89;99874.06;10407597;27;96583;-77
2022/01/30 18:28:59;;;;;;;6.87;2.20;;;6.30;66.00;;;4.64;50.11;99868.13;10410514;27;96692;-77
2022/01/30 18:34:02;;;;;;;9.73;2.40;;;6.30;66.50;;;4.58;50.16;99877.38;10379277;28;96652;-77
2022/01/30 18:39:07;;;;;;;9.87;2.13;;;6.30;66.50;;;4.61;50.39;99871.84;10351660;28;98611;-75
2022/01/30 18:44:12;;;;;;;5.53;1.83;;;6.30;66.70;;;4.61;49.95;99852.59;10362515;28;96599;-76
2022/01/30 18:49:16;;;;;;;11.57;2.10;;;6.20;66.30;;;4.59;50.06;99846.63;10340823;28;96651;-77
2022/01/30 18:54:19;;;;;;;8.73;2.00;;;6.30;66.40;;;4.59;50.09;99839.56;10357902;28;96605;-77
2022/01/30 18:59:22;;;;;;;21.77;3.63;;;6.20;66.30;;;4.61;49.88;99876.28;10384909;28;96541;-77
2022/01/30 19:04:25;;;;;;;9.17;2.20;;;6.20;66.30;;;4.63;49.98;99848.03;10382672;28;96543;-77
2022/01/30 19:09:28;;;;;;;12.77;2.73;;;6.20;66.30;;;4.57;50.06;99847.63;10406031;28;98496;-77
2022/01/30 19:14:31;;;;;;;8.63;1.90;;;6.20;66.50;;;4.56;50.33;99863.56;10402765;28;96491;-78
2022/01/30 19:19:34;;;;;;;7.23;1.80;;;6.20;66.80;;;4.55;50.16;99857.44;10415868;28;97806;-77
2022/01/30 19:24:37;;;;;;;14.53;3.07;;;6.20;66.80;;;4.54;50.42;99850.50;10366284;28;96657;-77
2022/01/30 19:29:42;;;;;;;6.70;1.67;;;6.10;66.60;;;4.51;50.24;99855.22;10348052;28;96544;-76
2022/01/30 19:34:45;;;;;;;6.03;2.23;;;6.10;66.40;;;4.50;50.36;99843.88;10376241;28;96484;-76
2022/01/30 19:39:48;;;;;;;11.10;2.67;;;6.10;66.60;;;4.48;50.39;99824.75;10395202;27;96813;-78
2022/01/30 19:44:55;;;;;;;6.50;1.50;;;6.10;66.40;;;4.43;50.79;99837.47;10439010;27;96511;-76
2022/01/30 19:49:58;;;;;;;11.90;2.23;;;6.00;66.90;;;4.44;51.17;99843.59;10377964;28;96502;-76
2022/01/30 19:55:02;;;;;;;9.23;1.20;;;6.00;67.50;;;4.42;51.15;99845.50;10418188;27;96833;-78
2022/01/30 20:00:11;;;;;;;7.87;1.53;;;6.00;67.70;;;4.40;51.95;99842.19;10400834;27;96523;-76
2022/01/30 20:05:15;;;;;;;10.07;1.53;;;6.00;68.40;;;4.36;52.03;99860.03;10401619;27;96717;-78
2022/01/30 20:10:18;;;;;;;9.27;1.77;;;5.90;68.60;;;4.33;52.08;99878.75;10453157;27;96540;-78
2022/01/30 20:15:23;;;;;;;9.53;1.90;;;6.00;68.80;;;4.27;52.33;99882.75;10430930;27;96490;-77
2022/01/30 20:20:25;;;;;;;12.33;2.10;;;5.90;68.70;;;4.26;51.93;99877.63;10403166;27;96503;-77
2022/01/30 20:25:29;;;;;;;9.47;1.57;;;5.90;68.70;;;4.24;51.92;99883.00;10415277;27;98085;-79
2022/01/30 20:30:31;;;;;;;10.40;2.47;;;5.90;68.40;;;4.23;51.92;99889.25;10412456;27;96498;-77
2022/01/30 20:35:35;;;;;;;10.50;2.03;;;5.80;68.50;;;4.21;52.22;99900.88;10389190;27;97457;-77
2022/01/30 20:40:38;;;;;;;12.10;2.20;;;5.80;68.60;;;4.16;52.18;99876.75;10385404;27;96649;-79
2022/01/30 20:45:43;;;;;;;9.30;1.97;;;5.80;68.80;;;4.12;52.57;99891.97;10424475;27;96672;-77
2022/01/30 20:50:46;;;;;;;8.20;1.47;;;5.80;69.10;;;4.10;52.90;99872.03;10399343;28;96438;-78
2022/01/30 20:55:51;;;;;;;6.07;1.60;;;5.80;69.40;;;4.03;53.07;99893.63;10379665;27;96526;-78
2022/01/30 21:00:54;;;;;;;6.97;1.63;;;5.70;69.60;;;4.01;53.53;99908.66;10421508;27;96671;-79
2022/01/30 21:05:58;;;;;;;7.83;1.80;;;5.70;70.30;;;3.98;53.47;99901.06;10388480;28;96787;-78
2022/01/30 21:11:02;;;;;;;5.63;0.97;;;5.60;70.30;;;3.87;53.81;99919.56;10362898;27;97747;-78
2022/01/30 21:16:05;;;;;;;11.40;1.67;;;5.50;70.80;;;3.82;53.71;99934.88;10385536;27;96859;-78
2022/01/30 21:21:08;;;;;;;14.00;1.97;;;5.50;70.80;;;3.79;54.05;99958.81;10380269;28;96801;-78
2022/01/30 21:26:13;;;;;;;12.27;2.53;;;5.40;70.90;;;3.72;54.35;99941.91;10382589;28;96463;-78
2022/01/30 21:31:16;;;;;;;8.60;1.57;;;5.40;71.20;;;3.63;54.46;99940.03;10367591;27;98523;-77
2022/01/30 21:36:19;;;;;;;7.60;1.70;;;5.30;71.60;;;3.56;55.14;99946.78;10426771;27;96872;-78
2022/01/30 21:41:22;;;;;;;8.23;1.77;;;5.20;71.90;;;3.46;54.89;99952.78;10429449;27;98208;-78
2022/01/30 21:46:25;;;;;;;8.20;1.60;;;5.20;72.00;;;3.47;54.73;99943.13;10395358;27;96781;-77
2022/01/30 21:51:28;;;;;;;13.40;2.30;;;5.10;71.90;;;3.37;54.89;99945.69;10397055;28;96584;-77
2022/01/30 21:56:32;;;;;;;7.30;1.67;;;5.10;72.10;;;3.33;55.14;99946.09;10403433;27;97456;-78
2022/01/30 22:01:34;;;;;;;9.40;1.87;;;5.00;72.00;;;3.29;55.12;99945.50;10430088;27;96384;-78
2022/01/30 22:06:38;;;;;;;9.07;1.73;;;5.00;72.10;;;3.23;55.50;99951.25;10431066;27;96448;-77
2022/01/30 22:11:45;;;;;;;9.50;1.90;;;4.90;72.40;;;3.14;55.61;99936.28;10403167;28;96515;-79
2022/01/30 22:16:47;;;;;;;13.23;1.60;;;4.80;72.40;;;3.03;55.41;99938.94;10394179;27;96522;-77
2022/01/30 22:21:50;;;;;;;8.83;2.03;;;4.80;72.60;;;2.98;55.59;99917.47;10390949;28;98598;-77
2022/01/30 22:26:54;;;;;;;7.97;1.70;;;4.70;72.80;;;2.88;56.23;99926.13;10411137;27;97036;-78
2022/01/30 22:31:56;;;;;;;9.20;2.03;;;4.70;73.30;;;2.82;55.98;99925.75;10410213;27;96646;-78
2022/01/30 22:36:59;;;;;;;12.43;2.73;;;4.60;73.20;;;2.78;56.20;99914.72;10463398;27;96525;-78
2022/01/30 22:42:03;;;;;;;14.03;1.70;;;4.60;73.40;;;2.79;55.86;99932.13;10438769;27;96800;-78